createdAt,value
2022-08-24T00:00:41.224Z,0.60
2022-08-24T00:03:12.118Z,0.60
2022-08-24T00:05:40.604Z,0.90
2022-08-24T00:08:08.595Z,1.07
2022-08-24T00:10:38.029Z,1.17
2022-08-24T00:13:05.976Z,0.70
2022-08-24T00:15:33.979Z,0.50
2022-08-24T00:18:02.114Z,0.40
2022-08-24T00:20:30.167Z,0.40
2022-08-24T00:22:58.129Z,0.60
2022-08-24T00:25:26.479Z,0.63
2022-08-24T00:27:55.824Z,0.50
2022-08-24T00:30:23.796Z,0.50
2022-08-24T00:32:52.345Z,0.50
2022-08-24T00:35:20.488Z,0.40
2022-08-24T00:37:49.404Z,0.43
2022-08-24T00:40:20.604Z,0.40
2022-08-24T00:42:49.004Z,0.43
2022-08-24T00:45:18.937Z,0.60
2022-08-24T00:47:49.448Z,0.43
2022-08-24T00:50:20.034Z,0.47
2022-08-24T00:52:51.090Z,0.60
2022-08-24T00:55:20.283Z,0.53
2022-08-24T00:57:50.364Z,0.70
2022-08-24T01:00:20.904Z,0.60
2022-08-24T01:02:50.131Z,0.50
2022-08-24T01:05:19.493Z,0.50
2022-08-24T01:07:49.474Z,0.50
2022-08-24T01:10:19.156Z,0.60
2022-08-24T01:13:00.147Z,0.50
2022-08-24T01:15:31.159Z,0.30
2022-08-24T01:18:16.776Z,1.10
2022-08-24T01:20:47.338Z,0.33
2022-08-24T01:23:18.021Z,0.60
2022-08-24T01:25:47.429Z,0.63
2022-08-24T01:28:23.397Z,0.50
2022-08-24T01:30:55.665Z,0.50
2022-08-24T01:33:25.656Z,0.50
2022-08-24T01:35:55.895Z,0.63
2022-08-24T01:38:23.870Z,0.60
2022-08-24T01:40:54.952Z,0.50
2022-08-24T01:43:24.506Z,0.70
2022-08-24T01:45:52.438Z,0.57
2022-08-24T01:48:22.964Z,0.50
2022-08-24T01:50:51.196Z,0.60
2022-08-24T01:53:19.987Z,0.50
2022-08-24T01:55:48.608Z,0.90
2022-08-24T01:58:17.947Z,0.50
2022-08-24T02:00:46.078Z,0.63
2022-08-24T02:03:14.158Z,0.63
2022-08-24T02:05:42.213Z,0.80
2022-08-24T02:08:10.373Z,0.60
2022-08-24T02:10:38.360Z,0.57
2022-08-24T02:13:06.379Z,0.70
2022-08-24T02:15:40.422Z,0.63
2022-08-24T02:18:15.197Z,0.60
2022-08-24T02:20:43.481Z,0.60
2022-08-24T02:23:11.453Z,0.70
2022-08-24T02:25:39.386Z,1.00
2022-08-24T02:28:07.326Z,0.70
2022-08-24T02:30:36.815Z,0.50
2022-08-24T02:33:04.891Z,0.60
2022-08-24T02:35:32.964Z,0.50
2022-08-24T02:38:00.997Z,0.60
2022-08-24T02:40:29.458Z,0.80
2022-08-24T02:42:57.537Z,0.50
2022-08-24T02:45:25.562Z,0.80
2022-08-24T02:47:55.060Z,0.80
2022-08-24T02:50:23.150Z,0.83
2022-08-24T02:52:51.115Z,0.77
2022-08-24T02:55:20.304Z,0.83
2022-08-24T02:57:50.658Z,0.90
2022-08-24T03:00:21.533Z,1.03
2022-08-24T03:02:49.884Z,0.60
2022-08-24T03:05:19.652Z,0.80
2022-08-24T03:07:48.065Z,1.00
2022-08-24T03:10:16.083Z,0.57
2022-08-24T03:12:44.482Z,0.70
2022-08-24T03:15:12.963Z,0.67
2022-08-24T03:17:42.978Z,0.47
2022-08-24T03:20:14.064Z,0.70
2022-08-24T03:22:43.547Z,0.80
2022-08-24T03:25:12.444Z,0.77
2022-08-24T03:27:40.582Z,0.60
2022-08-24T03:30:10.500Z,0.67
2022-08-24T03:32:39.702Z,0.60
2022-08-24T03:35:08.208Z,0.60
2022-08-24T03:37:36.175Z,0.80
2022-08-24T03:40:05.987Z,0.60
2022-08-24T03:42:34.931Z,0.90
2022-08-24T03:45:02.940Z,0.67
2022-08-24T03:47:30.874Z,0.40
2022-08-24T03:49:58.869Z,0.67
2022-08-24T03:52:29.973Z,0.60
2022-08-24T03:55:00.363Z,0.60
2022-08-24T03:57:29.768Z,0.57
2022-08-24T03:59:57.765Z,0.83
2022-08-24T04:02:31.143Z,0.70
2022-08-24T04:05:00.860Z,0.70
2022-08-24T04:07:28.918Z,0.90
2022-08-24T04:09:56.840Z,0.80
2022-08-24T04:12:24.856Z,0.90
2022-08-24T04:14:56.031Z,1.00
2022-08-24T04:17:23.984Z,1.03
2022-08-24T04:20:01.111Z,0.80
2022-08-24T04:22:30.074Z,0.80
2022-08-24T04:24:58.293Z,0.70
2022-08-24T04:27:26.247Z,0.77
2022-08-24T04:29:55.604Z,0.90
2022-08-24T04:32:23.527Z,1.00
2022-08-24T04:34:51.508Z,0.80
2022-08-24T04:37:27.064Z,0.77
2022-08-24T04:39:57.359Z,0.90
2022-08-24T04:42:25.866Z,1.00
2022-08-24T04:44:56.589Z,0.90
2022-08-24T04:47:24.579Z,0.80
2022-08-24T04:49:52.657Z,0.93
2022-08-24T04:52:20.612Z,1.30
2022-08-24T04:54:48.614Z,0.90
2022-08-24T04:57:18.293Z,1.10
2022-08-24T04:59:46.578Z,1.20
2022-08-24T05:02:16.031Z,0.97
2022-08-24T05:04:44.028Z,1.20
2022-08-24T05:07:12.548Z,1.10
2022-08-24T05:09:40.613Z,1.00
2022-08-24T05:12:08.910Z,1.13
2022-08-24T05:14:36.834Z,1.43
2022-08-24T05:17:05.056Z,0.83
2022-08-24T05:19:38.637Z,0.97
2022-08-24T05:22:06.710Z,1.00
2022-08-24T05:24:34.673Z,1.37
2022-08-24T05:27:02.615Z,1.00
2022-08-24T05:29:33.811Z,1.40
2022-08-24T05:32:02.282Z,1.20
2022-08-24T05:34:32.072Z,1.10
2022-08-24T05:37:01.507Z,1.10
2022-08-24T05:39:31.180Z,1.07
2022-08-24T05:42:00.009Z,1.00
2022-08-24T05:44:31.140Z,1.47
2022-08-24T05:46:59.541Z,1.10
2022-08-24T05:49:27.500Z,1.20
2022-08-24T05:51:55.505Z,1.40
2022-08-24T05:54:27.098Z,1.60
2022-08-24T05:56:55.129Z,1.50
2022-08-24T05:59:23.603Z,1.97
2022-08-24T06:01:51.819Z,1.80
2022-08-24T06:04:20.179Z,1.80
2022-08-24T06:06:48.813Z,2.13
2022-08-24T06:09:16.963Z,2.23
2022-08-24T06:11:47.045Z,1.97
2022-08-24T06:14:15.918Z,1.87
2022-08-24T06:16:44.743Z,1.67
2022-08-24T06:19:14.171Z,2.30
2022-08-24T06:21:42.451Z,2.77
2022-08-24T06:24:10.378Z,2.50
2022-08-24T06:26:55.645Z,2.37
2022-08-24T06:29:25.025Z,2.73
2022-08-24T06:31:54.257Z,3.37
2022-08-24T06:34:23.552Z,1.50
2022-08-24T06:36:51.822Z,1.63
2022-08-24T06:39:19.826Z,2.30
2022-08-24T06:41:47.806Z,1.60
2022-08-24T06:44:15.996Z,1.73
2022-08-24T06:46:45.585Z,1.67
2022-08-24T06:49:13.681Z,1.67
2022-08-24T06:51:41.614Z,1.47
2022-08-24T06:54:09.709Z,1.20
2022-08-24T06:56:38.121Z,1.40
2022-08-24T06:59:06.503Z,1.20
2022-08-24T07:01:34.557Z,1.10
2022-08-24T07:04:04.109Z,1.30
2022-08-24T07:06:32.137Z,1.33
2022-08-24T07:09:00.036Z,1.30
2022-08-24T07:11:28.080Z,1.17
2022-08-24T07:13:56.070Z,1.10
2022-08-24T07:16:24.036Z,1.47
2022-08-24T07:18:53.073Z,1.00
2022-08-24T07:21:23.362Z,1.30
2022-08-24T07:23:51.884Z,1.40
2022-08-24T07:26:23.168Z,1.43
2022-08-24T07:28:51.707Z,1.63
2022-08-24T07:31:21.284Z,1.17
2022-08-24T07:33:49.431Z,1.20
2022-08-24T07:36:22.225Z,1.30
2022-08-24T07:38:53.429Z,1.00
2022-08-24T07:41:47.108Z,1.30
2022-08-24T07:44:09.792Z,1.30
2022-08-24T07:46:38.077Z,1.23
2022-08-24T07:49:12.585Z,1.40
2022-08-24T07:51:48.951Z,2.00
2022-08-24T07:54:18.333Z,1.20
2022-08-24T07:56:46.665Z,1.40
2022-08-24T07:59:14.591Z,1.50
2022-08-24T08:01:42.655Z,1.17
2022-08-24T08:04:10.713Z,1.20
2022-08-24T08:06:38.897Z,1.47
2022-08-24T08:09:07.025Z,1.40
2022-08-24T08:11:36.444Z,1.30
2022-08-24T08:14:04.402Z,1.80
2022-08-24T08:16:32.521Z,1.50
2022-08-24T08:19:09.827Z,1.30
2022-08-24T08:21:59.607Z,1.30
2022-08-24T08:24:27.909Z,1.43
2022-08-24T08:26:57.821Z,1.70
2022-08-24T08:29:26.330Z,1.90
2022-08-24T08:31:54.499Z,1.50
2022-08-24T08:34:22.466Z,1.30
2022-08-24T08:36:50.700Z,1.80
2022-08-24T08:39:19.489Z,1.83
2022-08-24T08:41:58.846Z,1.40
2022-08-24T08:44:34.603Z,1.60
2022-08-24T08:47:09.983Z,1.50
2022-08-24T08:49:52.707Z,1.40
2022-08-24T08:52:37.763Z,1.37
2022-08-24T08:55:10.399Z,1.37
2022-08-24T08:57:44.559Z,1.60
2022-08-24T09:00:17.156Z,1.40
2022-08-24T09:03:00.649Z,1.77
2022-08-24T09:05:49.273Z,1.40
2022-08-24T09:08:21.977Z,1.80
2022-08-24T09:11:06.035Z,1.33
2022-08-24T09:13:41.165Z,1.60
2022-08-24T09:16:15.998Z,1.47
2022-08-24T09:18:52.350Z,1.50
2022-08-24T09:21:39.491Z,1.50
2022-08-24T09:24:14.211Z,1.67
2022-08-24T09:26:48.273Z,1.40
2022-08-24T09:29:18.134Z,1.73
2022-08-24T09:32:02.045Z,1.63
2022-08-24T09:34:40.309Z,1.67
2022-08-24T09:37:23.141Z,1.40
2022-08-24T09:40:00.176Z,1.48
2022-08-24T09:42:57.065Z,1.40
2022-08-24T09:45:42.546Z,1.63
2022-08-24T09:48:24.315Z,1.50
2022-08-24T09:51:10.172Z,1.42
2022-08-24T09:53:55.684Z,1.60
2022-08-24T09:56:29.152Z,1.58
2022-08-24T09:59:06.571Z,1.50
2022-08-24T10:01:38.818Z,1.33
2022-08-24T10:04:20.208Z,1.50
2022-08-24T10:06:53.479Z,1.30
2022-08-24T10:09:40.023Z,1.70
2022-08-24T10:12:16.536Z,1.38
2022-08-24T10:14:50.221Z,1.48
2022-08-24T10:17:22.032Z,4.00
2022-08-24T10:19:56.336Z,1.58
2022-08-24T10:22:31.641Z,1.65
2022-08-24T10:25:12.196Z,1.38
2022-08-24T10:27:44.544Z,1.42
2022-08-24T10:30:31.181Z,1.60
2022-08-24T10:33:06.054Z,1.40
2022-08-24T10:35:39.006Z,1.50
2022-08-24T10:38:36.128Z,1.47
2022-08-24T10:41:10.799Z,1.70
2022-08-24T10:43:57.289Z,1.50
2022-08-24T10:46:40.653Z,1.50
2022-08-24T10:49:33.119Z,1.77
2022-08-24T10:52:16.865Z,2.10
2022-08-24T10:54:45.816Z,1.90
2022-08-24T10:57:18.743Z,1.50
2022-08-24T10:59:56.941Z,1.37
2022-08-24T11:02:32.561Z,1.47
2022-08-24T11:05:01.424Z,1.83
2022-08-24T11:07:30.844Z,1.63
2022-08-24T11:10:01.243Z,1.57
2022-08-24T11:12:30.290Z,1.60
2022-08-24T11:14:59.537Z,1.97
2022-08-24T11:17:28.759Z,2.30
2022-08-24T11:19:57.555Z,1.97
2022-08-24T11:22:37.019Z,1.60
2022-08-24T11:25:06.686Z,1.73
2022-08-24T11:27:36.409Z,1.50
2022-08-24T11:30:07.971Z,1.50
2022-08-24T11:32:40.646Z,1.90
2022-08-24T11:35:10.824Z,1.70
2022-08-24T11:37:40.636Z,1.80
2022-08-24T11:40:09.324Z,1.50
2022-08-24T11:42:41.376Z,1.67
2022-08-24T11:45:11.441Z,1.70
2022-08-24T11:47:47.435Z,1.67
2022-08-24T11:50:24.573Z,1.65
2022-08-24T11:52:59.792Z,1.73
2022-08-24T11:55:36.808Z,1.80
2022-08-24T11:58:19.045Z,1.80
2022-08-24T12:00:48.926Z,1.80
2022-08-24T12:03:25.246Z,1.55
2022-08-24T12:05:56.406Z,1.40
2022-08-24T12:08:35.344Z,1.85
2022-08-24T12:11:08.723Z,1.67
2022-08-24T12:13:44.439Z,1.50
2022-08-24T12:16:16.790Z,2.20
2022-08-24T12:18:48.994Z,2.25
2022-08-24T12:21:18.831Z,2.30
2022-08-24T12:23:50.150Z,1.30
2022-08-24T12:26:21.041Z,1.60
2022-08-24T12:28:54.529Z,1.50
2022-08-24T12:31:24.044Z,1.48
2022-08-24T12:33:53.908Z,1.25
2022-08-24T12:36:26.244Z,1.65
2022-08-24T12:39:03.572Z,1.67
2022-08-24T12:41:34.574Z,1.40
2022-08-24T12:44:05.257Z,1.30
2022-08-24T12:46:33.281Z,1.60
2022-08-24T12:49:02.232Z,1.50
2022-08-24T12:51:39.265Z,1.40
2022-08-24T12:54:22.285Z,1.40
2022-08-24T12:57:07.601Z,1.50
2022-08-24T12:59:38.527Z,1.23
2022-08-24T13:02:08.746Z,1.17
2022-08-24T13:04:41.061Z,1.23
2022-08-24T13:07:10.812Z,1.10
2022-08-24T13:09:41.260Z,1.33
2022-08-24T13:12:27.810Z,1.23
2022-08-24T13:14:57.514Z,1.50
2022-08-24T13:17:41.100Z,1.40
2022-08-24T13:20:26.854Z,1.33
2022-08-24T13:23:08.184Z,1.13
2022-08-24T13:25:44.965Z,1.35
2022-08-24T13:28:32.439Z,1.30
2022-08-24T13:31:05.970Z,1.20
2022-08-24T13:33:37.591Z,1.55
2022-08-24T13:36:29.978Z,1.20
2022-08-24T13:39:31.235Z,1.35
2022-08-24T13:42:08.813Z,1.02
2022-08-24T13:44:46.766Z,1.00
2022-08-24T13:47:18.105Z,1.35
2022-08-24T13:49:52.858Z,1.52
2022-08-24T13:52:24.235Z,1.15
2022-08-24T13:55:02.668Z,1.38
2022-08-24T13:57:40.122Z,1.10
2022-08-24T14:00:32.383Z,1.20
2022-08-24T14:03:07.449Z,1.63
2022-08-24T14:05:38.569Z,1.48
2022-08-24T14:08:12.858Z,1.27
2022-08-24T14:10:45.451Z,1.77
2022-08-24T14:13:26.808Z,1.50
2022-08-24T14:16:18.568Z,1.15
2022-08-24T14:18:55.694Z,1.83
2022-08-24T14:21:27.222Z,1.25
2022-08-24T14:23:59.373Z,1.40
2022-08-24T14:26:49.813Z,1.25
2022-08-24T14:29:28.970Z,1.55
2022-08-24T14:32:15.662Z,1.30
2022-08-24T14:34:45.928Z,1.10
2022-08-24T14:37:21.053Z,1.23
2022-08-24T14:39:53.032Z,1.20
2022-08-24T14:42:25.121Z,1.10
2022-08-24T14:45:00.205Z,1.50
2022-08-24T14:47:37.284Z,1.45
2022-08-24T14:50:12.617Z,1.40
2022-08-24T14:52:45.952Z,1.08
2022-08-24T14:55:20.126Z,1.08
2022-08-24T14:57:58.691Z,1.17
2022-08-24T15:00:35.690Z,0.88
2022-08-24T15:03:12.106Z,1.23
2022-08-24T15:05:44.995Z,1.40
2022-08-24T15:08:32.318Z,1.20
2022-08-24T15:11:08.464Z,0.98
2022-08-24T15:13:42.910Z,1.20
2022-08-24T15:16:14.895Z,1.45
2022-08-24T15:18:44.447Z,1.10
2022-08-24T15:21:24.828Z,1.08
2022-08-24T15:24:08.011Z,1.02
2022-08-24T15:26:46.450Z,1.00
2022-08-24T15:29:16.443Z,1.13
2022-08-24T15:31:55.970Z,1.10
2022-08-24T15:34:34.003Z,0.95
2022-08-24T15:37:02.240Z,1.13
2022-08-24T15:39:30.607Z,1.00
2022-08-24T15:41:58.958Z,0.95
2022-08-24T15:44:28.247Z,1.00
2022-08-24T15:46:59.043Z,1.35
2022-08-24T15:49:29.615Z,1.30
2022-08-24T15:51:59.584Z,1.30
2022-08-24T15:54:33.051Z,1.13
2022-08-24T15:57:02.287Z,1.00
2022-08-24T15:59:31.729Z,1.23
2022-08-24T16:02:33.497Z,1.02
2022-08-24T16:05:10.701Z,1.20
2022-08-24T16:08:00.988Z,1.20
2022-08-24T16:10:30.405Z,0.98
2022-08-24T16:13:07.454Z,1.90
2022-08-24T16:15:35.747Z,1.20
2022-08-24T16:18:03.837Z,1.35
2022-08-24T16:20:35.978Z,1.10
2022-08-24T16:23:06.376Z,1.20
2022-08-24T16:25:35.221Z,1.30
2022-08-24T16:28:07.745Z,1.30
2022-08-24T16:30:41.716Z,1.20
2022-08-24T16:33:10.834Z,1.40
2022-08-24T16:35:40.537Z,1.70
2022-08-24T16:38:08.458Z,1.38
2022-08-24T16:40:36.673Z,1.33
2022-08-24T16:43:04.765Z,1.30
2022-08-24T16:45:35.854Z,1.40
2022-08-24T16:48:04.605Z,1.33
2022-08-24T16:50:32.865Z,1.42
2022-08-24T16:53:02.203Z,1.30
2022-08-24T16:55:30.200Z,1.40
2022-08-24T16:57:58.143Z,1.33
2022-08-24T17:00:26.212Z,1.70
2022-08-24T17:02:55.016Z,1.33
2022-08-24T17:05:23.913Z,1.13
2022-08-24T17:07:52.070Z,1.40
2022-08-24T17:10:23.322Z,1.13
2022-08-24T17:12:51.298Z,1.20
2022-08-24T17:15:19.306Z,1.30
2022-08-24T17:17:50.493Z,1.30
2022-08-24T17:20:19.152Z,1.25
2022-08-24T17:22:47.156Z,1.27
2022-08-24T17:25:15.131Z,1.13
2022-08-24T17:27:44.555Z,1.83
2022-08-24T17:30:16.746Z,1.33
2022-08-24T17:32:44.933Z,1.30
2022-08-24T17:35:12.986Z,0.93
2022-08-24T17:37:41.063Z,1.33
2022-08-24T17:40:11.767Z,1.45
2022-08-24T17:42:50.700Z,1.27
2022-08-24T17:45:20.566Z,1.25
2022-08-24T17:47:48.482Z,1.30
2022-08-24T17:50:16.739Z,1.15
2022-08-24T17:52:45.121Z,1.77
2022-08-24T17:55:14.249Z,2.08
2022-08-24T17:57:45.711Z,2.55
2022-08-24T18:00:16.787Z,2.20
2022-08-24T18:02:46.162Z,2.25
2022-08-24T18:05:14.499Z,2.45
2022-08-24T18:07:53.056Z,2.53
2022-08-24T18:10:23.968Z,2.22
2022-08-24T18:12:52.058Z,2.38
2022-08-24T18:15:20.072Z,2.33
2022-08-24T18:17:51.698Z,2.70
2022-08-24T18:20:22.458Z,2.40
2022-08-24T18:22:50.707Z,1.75
2022-08-24T18:25:23.010Z,2.28
2022-08-24T18:27:52.275Z,1.65
2022-08-24T18:30:22.519Z,2.03
2022-08-24T18:32:53.937Z,3.13
2022-08-24T18:35:22.196Z,2.75
2022-08-24T18:37:50.229Z,2.40
2022-08-24T18:40:20.501Z,2.67
2022-08-24T18:42:50.897Z,2.45
2022-08-24T18:45:19.168Z,3.58
2022-08-24T18:47:53.073Z,4.22
2022-08-24T18:50:22.951Z,5.10
2022-08-24T18:52:50.962Z,4.28
2022-08-24T18:55:18.941Z,4.53
2022-08-24T18:57:46.935Z,4.68
2022-08-24T19:00:15.468Z,3.78
2022-08-24T19:02:43.432Z,5.53
2022-08-24T19:05:13.018Z,5.35
2022-08-24T19:07:44.606Z,5.07
2022-08-24T19:10:13.636Z,3.60
2022-08-24T19:12:43.517Z,3.88
2022-08-24T19:15:35.912Z,5.85
2022-08-24T19:18:03.959Z,8.57
2022-08-24T19:20:34.043Z,6.50
2022-08-24T19:23:07.675Z,5.68
2022-08-24T19:25:36.215Z,6.30
2022-08-24T19:28:04.825Z,12.00
2022-08-24T19:30:32.971Z,12.23
2022-08-24T19:33:01.633Z,13.40
2022-08-24T19:35:31.842Z,8.85
2022-08-24T19:37:59.903Z,10.07
2022-08-24T19:40:29.563Z,12.70
2022-08-24T19:42:57.965Z,10.90
2022-08-24T19:45:44.185Z,15.90
2022-08-24T19:48:12.286Z,14.20
2022-08-24T19:50:40.530Z,14.07
2022-08-24T19:53:10.365Z,11.60
2022-08-24T19:55:39.752Z,8.43
2022-08-24T19:58:09.867Z,8.23
2022-08-24T20:00:42.116Z,6.07
2022-08-24T20:03:16.240Z,5.57
2022-08-24T20:05:44.289Z,5.27
2022-08-24T20:08:12.257Z,5.10
2022-08-24T20:10:42.283Z,4.83
2022-08-24T20:13:10.334Z,3.63
2022-08-24T20:15:38.549Z,2.90
2022-08-24T20:18:06.646Z,3.97
2022-08-24T20:20:34.811Z,3.70
2022-08-24T20:23:06.420Z,4.60
2022-08-24T20:25:35.256Z,4.17
2022-08-24T20:28:28.817Z,4.90
2022-08-24T20:30:53.770Z,4.07
2022-08-24T20:33:23.881Z,4.22
2022-08-24T20:35:51.915Z,4.68
2022-08-24T20:38:21.364Z,3.97
2022-08-24T20:40:49.765Z,4.37
2022-08-24T20:43:19.824Z,3.50
2022-08-24T20:45:50.648Z,4.50
2022-08-24T20:48:23.827Z,3.60
2022-08-24T20:50:51.787Z,4.07
2022-08-24T20:53:19.720Z,6.07
2022-08-24T20:55:47.947Z,5.70
2022-08-24T20:58:16.318Z,5.20
2022-08-24T21:00:46.248Z,5.13
2022-08-24T21:03:16.262Z,4.33
2022-08-24T21:05:44.508Z,4.80
2022-08-24T21:08:12.752Z,4.50
2022-08-24T21:10:42.324Z,5.47
2022-08-24T21:13:10.336Z,5.87
2022-08-24T21:15:38.608Z,4.77
2022-08-24T21:18:08.234Z,3.97
2022-08-24T21:20:36.216Z,4.40
2022-08-24T21:23:05.196Z,4.50
2022-08-24T21:25:33.375Z,4.27
2022-08-24T21:28:03.119Z,4.17
2022-08-24T21:30:31.719Z,4.20
2022-08-24T21:33:24.294Z,4.13
2022-08-24T21:35:55.012Z,4.47
2022-08-24T21:38:23.543Z,5.13
2022-08-24T21:40:53.745Z,3.70
2022-08-24T21:43:21.854Z,4.27
2022-08-24T21:45:50.357Z,3.77
2022-08-24T21:48:18.672Z,3.67
2022-08-24T21:50:47.056Z,3.83
2022-08-24T21:53:16.506Z,3.37
2022-08-24T21:55:44.926Z,2.83
2022-08-24T21:58:13.408Z,3.00
2022-08-24T22:00:41.504Z,3.17
2022-08-24T22:03:10.141Z,2.83
2022-08-24T22:05:38.136Z,2.90
2022-08-24T22:08:06.154Z,3.08
2022-08-24T22:10:35.509Z,2.60
2022-08-24T22:13:04.773Z,2.83
2022-08-24T22:15:32.985Z,2.93
2022-08-24T22:18:01.484Z,3.08
2022-08-24T22:20:29.675Z,3.20
2022-08-24T22:22:58.574Z,3.00
2022-08-24T22:25:26.536Z,2.70
2022-08-24T22:27:56.026Z,2.33
2022-08-24T22:30:24.007Z,2.30
2022-08-24T22:32:52.026Z,4.37
2022-08-24T22:35:20.073Z,2.97
2022-08-24T22:37:48.004Z,2.50
2022-08-24T22:40:16.087Z,2.43
2022-08-24T22:42:47.001Z,2.70
2022-08-24T22:45:16.747Z,2.20
2022-08-24T22:47:44.713Z,2.47
2022-08-24T22:50:12.674Z,2.25
2022-08-24T22:52:40.613Z,2.40
2022-08-24T22:55:09.163Z,2.33
2022-08-24T22:57:37.183Z,2.17
2022-08-24T23:00:07.004Z,2.13
2022-08-24T23:02:38.351Z,2.53
2022-08-24T23:05:06.845Z,2.87
2022-08-24T23:07:35.555Z,3.03
2022-08-24T23:10:03.594Z,3.03
2022-08-24T23:12:32.462Z,2.47
2022-08-24T23:15:00.620Z,2.50
2022-08-24T23:17:28.621Z,3.50
2022-08-24T23:20:06.548Z,3.23
2022-08-24T23:22:36.317Z,2.33
2022-08-24T23:25:05.126Z,2.67
2022-08-24T23:27:38.089Z,2.70
2022-08-24T23:30:07.899Z,2.23
2022-08-24T23:32:36.052Z,2.70
2022-08-24T23:35:05.722Z,2.40
2022-08-24T23:37:33.680Z,2.60
2022-08-24T23:40:01.833Z,2.60
2022-08-24T23:42:29.863Z,3.30
2022-08-24T23:44:57.810Z,2.97
2022-08-24T23:47:26.088Z,3.10
2022-08-24T23:49:55.611Z,2.87
2022-08-24T23:52:26.406Z,3.43
2022-08-24T23:54:55.183Z,2.70
2022-08-24T23:57:23.620Z,3.37
2022-08-24T23:59:52.031Z,2.87
